sensor_id;sensor_type;location;lat;lon;timestamp;temperature;humidity
6357;DHT22;3211;53.452;-2.264;2023-04-29T00:02:35;11.20;99.90
6357;DHT22;3211;53.452;-2.264;2023-04-29T00:05:18;11.20;99.90
6357;DHT22;3211;53.452;-2.264;2023-04-29T00:08:01;11.20;99.90
6357;DHT22;3211;53.452;-2.264;2023-04-29T00:10:44;11.20;99.90
6357;DHT22;3211;53.452;-2.264;2023-04-29T00:13:26;11.10;99.90
6357;DHT22;3211;53.452;-2.264;2023-04-29T00:16:08;11.00;99.90
6357;DHT22;3211;53.452;-2.264;2023-04-29T00:18:52;11.10;99.90
6357;DHT22;3211;53.452;-2.264;2023-04-29T00:21:35;11.00;99.90
6357;DHT22;3211;53.452;-2.264;2023-04-29T00:24:17;10.90;99.90
6357;DHT22;3211;53.452;-2.264;2023-04-29T00:26:59;10.90;99.90
6357;DHT22;3211;53.452;-2.264;2023-04-29T00:29:41;10.80;99.90
6357;DHT22;3211;53.452;-2.264;2023-04-29T00:32:23;10.70;99.90
6357;DHT22;3211;53.452;-2.264;2023-04-29T00:35:07;10.60;99.90
6357;DHT22;3211;53.452;-2.264;2023-04-29T00:37:51;10.60;99.90
6357;DHT22;3211;53.452;-2.264;2023-04-29T00:40:34;10.50;99.90
6357;DHT22;3211;53.452;-2.264;2023-04-29T00:43:16;10.40;99.90
6357;DHT22;3211;53.452;-2.264;2023-04-29T00:45:58;10.30;99.90
6357;DHT22;3211;53.452;-2.264;2023-04-29T00:48:40;10.30;99.90
6357;DHT22;3211;53.452;-2.264;2023-04-29T00:51:23;10.30;99.90
6357;DHT22;3211;53.452;-2.264;2023-04-29T00:54:07;10.30;99.90
6357;DHT22;3211;53.452;-2.264;2023-04-29T00:56:49;10.30;99.90
6357;DHT22;3211;53.452;-2.264;2023-04-29T00:59:32;10.30;99.90
6357;DHT22;3211;53.452;-2.264;2023-04-29T01:02:14;10.30;99.90
6357;DHT22;3211;53.452;-2.264;2023-04-29T01:04:57;10.30;99.90
6357;DHT22;3211;53.452;-2.264;2023-04-29T01:07:46;10.30;99.90
6357;DHT22;3211;53.452;-2.264;2023-04-29T01:10:37;10.30;99.90
6357;DHT22;3211;53.452;-2.264;2023-04-29T01:13:29;10.40;99.90
6357;DHT22;3211;53.452;-2.264;2023-04-29T01:16:19;10.40;99.90
6357;DHT22;3211;53.452;-2.264;2023-04-29T01:19:08;10.50;99.90
6357;DHT22;3211;53.452;-2.264;2023-04-29T01:21:54;10.50;99.90
6357;DHT22;3211;53.452;-2.264;2023-04-29T01:24:37;10.50;99.90
6357;DHT22;3211;53.452;-2.264;2023-04-29T01:27:27;10.50;99.90
6357;DHT22;3211;53.452;-2.264;2023-04-29T01:30:18;10.50;99.90
6357;DHT22;3211;53.452;-2.264;2023-04-29T01:33:13;10.50;99.90
6357;DHT22;3211;53.452;-2.264;2023-04-29T01:36:03;10.60;99.90
6357;DHT22;3211;53.452;-2.264;2023-04-29T01:38:56;10.60;99.90
6357;DHT22;3211;53.452;-2.264;2023-04-29T01:41:46;10.60;99.90
6357;DHT22;3211;53.452;-2.264;2023-04-29T01:44:32;10.60;99.90
6357;DHT22;3211;53.452;-2.264;2023-04-29T01:47:15;10.60;99.90
6357;DHT22;3211;53.452;-2.264;2023-04-29T01:49:57;10.60;99.90
6357;DHT22;3211;53.452;-2.264;2023-04-29T01:52:39;10.60;99.90
6357;DHT22;3211;53.452;-2.264;2023-04-29T01:55:21;10.60;99.90
6357;DHT22;3211;53.452;-2.264;2023-04-29T01:58:05;10.60;99.90
6357;DHT22;3211;53.452;-2.264;2023-04-29T02:00:47;10.70;99.90
6357;DHT22;3211;53.452;-2.264;2023-04-29T02:03:28;10.70;99.90
6357;DHT22;3211;53.452;-2.264;2023-04-29T02:06:10;10.70;99.90
6357;DHT22;3211;53.452;-2.264;2023-04-29T02:08:52;10.70;99.90
6357;DHT22;3211;53.452;-2.264;2023-04-29T02:11:34;10.70;99.90
6357;DHT22;3211;53.452;-2.264;2023-04-29T02:14:18;10.70;99.90
6357;DHT22;3211;53.452;-2.264;2023-04-29T02:17:00;10.60;99.90
6357;DHT22;3211;53.452;-2.264;2023-04-29T02:19:42;10.70;99.90
6357;DHT22;3211;53.452;-2.264;2023-04-29T02:22:24;10.70;99.90
6357;DHT22;3211;53.452;-2.264;2023-04-29T02:25:06;10.70;99.90
6357;DHT22;3211;53.452;-2.264;2023-04-29T02:27:48;10.60;99.90
6357;DHT22;3211;53.452;-2.264;2023-04-29T02:30:32;10.60;99.90
6357;DHT22;3211;53.452;-2.264;2023-04-29T02:33:14;10.60;99.90
6357;DHT22;3211;53.452;-2.264;2023-04-29T02:35:56;10.60;99.90
6357;DHT22;3211;53.452;-2.264;2023-04-29T02:38:39;10.50;99.90
6357;DHT22;3211;53.452;-2.264;2023-04-29T02:41:21;10.50;99.90
6357;DHT22;3211;53.452;-2.264;2023-04-29T02:44:05;10.50;99.90
6357;DHT22;3211;53.452;-2.264;2023-04-29T02:46:48;10.50;99.90
6357;DHT22;3211;53.452;-2.264;2023-04-29T02:49:30;10.50;99.90
6357;DHT22;3211;53.452;-2.264;2023-04-29T02:52:12;10.40;99.90
6357;DHT22;3211;53.452;-2.264;2023-04-29T02:54:54;10.40;99.90
6357;DHT22;3211;53.452;-2.264;2023-04-29T02:57:36;10.40;99.90
6357;DHT22;3211;53.452;-2.264;2023-04-29T03:00:19;10.30;99.90
6357;DHT22;3211;53.452;-2.264;2023-04-29T03:03:02;10.30;99.90
6357;DHT22;3211;53.452;-2.264;2023-04-29T03:05:44;10.30;99.90
6357;DHT22;3211;53.452;-2.264;2023-04-29T03:08:26;10.20;99.90
6357;DHT22;3211;53.452;-2.264;2023-04-29T03:11:08;10.10;99.90
6357;DHT22;3211;53.452;-2.264;2023-04-29T03:13:50;10.10;99.90
6357;DHT22;3211;53.452;-2.264;2023-04-29T03:16:33;10.10;99.90
6357;DHT22;3211;53.452;-2.264;2023-04-29T03:19:16;10.00;99.90
6357;DHT22;3211;53.452;-2.264;2023-04-29T03:21:58;10.00;99.90
6357;DHT22;3211;53.452;-2.264;2023-04-29T03:24:40;10.00;99.90
6357;DHT22;3211;53.452;-2.264;2023-04-29T03:27:22;10.00;99.90
6357;DHT22;3211;53.452;-2.264;2023-04-29T03:30:06;10.00;99.90
6357;DHT22;3211;53.452;-2.264;2023-04-29T03:32:48;10.00;99.90
6357;DHT22;3211;53.452;-2.264;2023-04-29T03:35:31;10.00;99.90
6357;DHT22;3211;53.452;-2.264;2023-04-29T03:38:13;9.90;99.90
6357;DHT22;3211;53.452;-2.264;2023-04-29T03:40:55;9.90;99.90
6357;DHT22;3211;53.452;-2.264;2023-04-29T03:43:37;9.90;99.90
6357;DHT22;3211;53.452;-2.264;2023-04-29T03:46:19;9.90;99.90
6357;DHT22;3211;53.452;-2.264;2023-04-29T03:49:01;9.90;99.90
6357;DHT22;3211;53.452;-2.264;2023-04-29T03:51:44;9.90;99.90
6357;DHT22;3211;53.452;-2.264;2023-04-29T03:54:26;9.90;99.90
6357;DHT22;3211;53.452;-2.264;2023-04-29T03:57:08;9.80;99.90
6357;DHT22;3211;53.452;-2.264;2023-04-29T03:59:50;9.80;99.90
6357;DHT22;3211;53.452;-2.264;2023-04-29T04:02:32;9.80;99.90
6357;DHT22;3211;53.452;-2.264;2023-04-29T04:05:14;9.80;99.90
6357;DHT22;3211;53.452;-2.264;2023-04-29T04:08:00;9.70;99.90
6357;DHT22;3211;53.452;-2.264;2023-04-29T04:10:42;9.70;99.90
6357;DHT22;3211;53.452;-2.264;2023-04-29T04:13:24;9.70;99.90
6357;DHT22;3211;53.452;-2.264;2023-04-29T04:16:06;9.70;99.90
6357;DHT22;3211;53.452;-2.264;2023-04-29T04:18:48;9.70;99.90
6357;DHT22;3211;53.452;-2.264;2023-04-29T04:21:30;9.70;99.90
6357;DHT22;3211;53.452;-2.264;2023-04-29T04:24:13;9.70;99.90
6357;DHT22;3211;53.452;-2.264;2023-04-29T04:26:55;9.70;99.90
6357;DHT22;3211;53.452;-2.264;2023-04-29T04:29:37;9.70;99.90
6357;DHT22;3211;53.452;-2.264;2023-04-29T04:32:19;9.60;99.90
6357;DHT22;3211;53.452;-2.264;2023-04-29T04:35:01;9.70;99.90
6357;DHT22;3211;53.452;-2.264;2023-04-29T04:37:43;9.70;99.90
6357;DHT22;3211;53.452;-2.264;2023-04-29T04:40:27;9.70;99.90
6357;DHT22;3211;53.452;-2.264;2023-04-29T04:43:09;9.70;99.90
6357;DHT22;3211;53.452;-2.264;2023-04-29T04:45:51;9.80;99.90
6357;DHT22;3211;53.452;-2.264;2023-04-29T04:48:34;9.80;99.90
6357;DHT22;3211;53.452;-2.264;2023-04-29T04:51:16;9.80;99.90
6357;DHT22;3211;53.452;-2.264;2023-04-29T04:53:57;9.80;99.90
6357;DHT22;3211;53.452;-2.264;2023-04-29T04:56:41;9.90;99.90
6357;DHT22;3211;53.452;-2.264;2023-04-29T04:59:23;9.90;99.90
6357;DHT22;3211;53.452;-2.264;2023-04-29T05:02:05;10.00;99.90
6357;DHT22;3211;53.452;-2.264;2023-04-29T05:04:48;10.00;99.90
6357;DHT22;3211;53.452;-2.264;2023-04-29T05:07:30;10.10;99.90
6357;DHT22;3211;53.452;-2.264;2023-04-29T05:10:12;10.20;99.90
6357;DHT22;3211;53.452;-2.264;2023-04-29T05:12:56;10.30;99.90
6357;DHT22;3211;53.452;-2.264;2023-04-29T05:15:38;10.40;99.90
6357;DHT22;3211;53.452;-2.264;2023-04-29T05:18:20;10.40;99.90
6357;DHT22;3211;53.452;-2.264;2023-04-29T05:21:02;10.50;99.90
6357;DHT22;3211;53.452;-2.264;2023-04-29T05:23:44;10.50;99.90
6357;DHT22;3211;53.452;-2.264;2023-04-29T05:26:26;10.60;99.90
6357;DHT22;3211;53.452;-2.264;2023-04-29T05:29:09;10.60;99.90
6357;DHT22;3211;53.452;-2.264;2023-04-29T05:31:51;10.70;99.90
6357;DHT22;3211;53.452;-2.264;2023-04-29T05:34:33;10.70;99.90
6357;DHT22;3211;53.452;-2.264;2023-04-29T05:37:15;10.60;99.90
6357;DHT22;3211;53.452;-2.264;2023-04-29T05:39:57;10.70;99.90
6357;DHT22;3211;53.452;-2.264;2023-04-29T05:42:39;10.70;99.90
6357;DHT22;3211;53.452;-2.264;2023-04-29T05:45:22;10.70;99.90
6357;DHT22;3211;53.452;-2.264;2023-04-29T05:48:05;10.80;99.90
6357;DHT22;3211;53.452;-2.264;2023-04-29T05:50:47;10.80;99.90
6357;DHT22;3211;53.452;-2.264;2023-04-29T05:53:29;10.80;99.90
6357;DHT22;3211;53.452;-2.264;2023-04-29T05:56:11;10.90;99.90
6357;DHT22;3211;53.452;-2.264;2023-04-29T05:58:53;10.90;99.90
6357;DHT22;3211;53.452;-2.264;2023-04-29T06:01:36;11.00;99.90
6357;DHT22;3211;53.452;-2.264;2023-04-29T06:04:18;11.00;99.90
6357;DHT22;3211;53.452;-2.264;2023-04-29T06:07:00;11.10;99.90
6357;DHT22;3211;53.452;-2.264;2023-04-29T06:09:44;11.10;99.90
6357;DHT22;3211;53.452;-2.264;2023-04-29T06:12:26;11.10;99.90
6357;DHT22;3211;53.452;-2.264;2023-04-29T06:15:09;11.00;99.90
6357;DHT22;3211;53.452;-2.264;2023-04-29T06:17:52;11.10;99.90
6357;DHT22;3211;53.452;-2.264;2023-04-29T06:20:34;11.10;99.90
6357;DHT22;3211;53.452;-2.264;2023-04-29T06:23:16;11.30;99.90
6357;DHT22;3211;53.452;-2.264;2023-04-29T06:25:58;11.20;99.90
6357;DHT22;3211;53.452;-2.264;2023-04-29T06:28:41;11.30;99.90
6357;DHT22;3211;53.452;-2.264;2023-04-29T06:31:23;11.30;99.90
6357;DHT22;3211;53.452;-2.264;2023-04-29T06:34:06;11.30;99.90
6357;DHT22;3211;53.452;-2.264;2023-04-29T06:36:48;11.20;99.90
6357;DHT22;3211;53.452;-2.264;2023-04-29T06:39:30;11.30;99.90
6357;DHT22;3211;53.452;-2.264;2023-04-29T06:42:12;11.30;99.90
6357;DHT22;3211;53.452;-2.264;2023-04-29T06:44:54;11.40;99.90
6357;DHT22;3211;53.452;-2.264;2023-04-29T06:47:36;11.30;99.90
6357;DHT22;3211;53.452;-2.264;2023-04-29T06:50:20;11.30;99.90
6357;DHT22;3211;53.452;-2.264;2023-04-29T06:53:02;11.40;99.90
6357;DHT22;3211;53.452;-2.264;2023-04-29T06:55:44;11.40;99.90
6357;DHT22;3211;53.452;-2.264;2023-04-29T06:58:26;11.30;99.90
6357;DHT22;3211;53.452;-2.264;2023-04-29T07:01:08;11.40;99.90
6357;DHT22;3211;53.452;-2.264;2023-04-29T07:03:50;11.50;99.90
6357;DHT22;3211;53.452;-2.264;2023-04-29T07:06:34;11.60;99.90
6357;DHT22;3211;53.452;-2.264;2023-04-29T07:09:16;11.70;99.90
6357;DHT22;3211;53.452;-2.264;2023-04-29T07:11:58;11.60;99.90
6357;DHT22;3211;53.452;-2.264;2023-04-29T07:14:42;11.80;99.90
6357;DHT22;3211;53.452;-2.264;2023-04-29T07:17:24;11.80;99.90
6357;DHT22;3211;53.452;-2.264;2023-04-29T07:20:07;11.90;99.90
6357;DHT22;3211;53.452;-2.264;2023-04-29T07:22:50;11.90;99.90
6357;DHT22;3211;53.452;-2.264;2023-04-29T07:25:32;11.90;99.90
6357;DHT22;3211;53.452;-2.264;2023-04-29T07:28:14;11.90;99.90
6357;DHT22;3211;53.452;-2.264;2023-04-29T07:30:56;11.90;99.90
6357;DHT22;3211;53.452;-2.264;2023-04-29T07:33:38;12.00;99.90
6357;DHT22;3211;53.452;-2.264;2023-04-29T07:36:20;12.00;99.90
6357;DHT22;3211;53.452;-2.264;2023-04-29T07:39:04;12.00;99.90
6357;DHT22;3211;53.452;-2.264;2023-04-29T07:41:46;12.00;99.90
6357;DHT22;3211;53.452;-2.264;2023-04-29T07:44:27;12.10;99.90
6357;DHT22;3211;53.452;-2.264;2023-04-29T07:47:09;12.20;99.90
6357;DHT22;3211;53.452;-2.264;2023-04-29T07:49:51;12.20;99.90
6357;DHT22;3211;53.452;-2.264;2023-04-29T07:52:33;12.20;99.90
6357;DHT22;3211;53.452;-2.264;2023-04-29T07:55:17;12.30;99.90
6357;DHT22;3211;53.452;-2.264;2023-04-29T07:57:59;12.50;99.90
6357;DHT22;3211;53.452;-2.264;2023-04-29T08:00:41;12.60;99.90
6357;DHT22;3211;53.452;-2.264;2023-04-29T08:03:23;12.60;99.90
6357;DHT22;3211;53.452;-2.264;2023-04-29T08:06:05;12.80;99.90
6357;DHT22;3211;53.452;-2.264;2023-04-29T08:08:47;13.00;99.90
6357;DHT22;3211;53.452;-2.264;2023-04-29T08:11:31;13.00;99.90
6357;DHT22;3211;53.452;-2.264;2023-04-29T08:14:13;13.30;99.90
6357;DHT22;3211;53.452;-2.264;2023-04-29T08:16:54;13.20;99.90
6357;DHT22;3211;53.452;-2.264;2023-04-29T08:19:36;13.30;99.90
6357;DHT22;3211;53.452;-2.264;2023-04-29T08:22:18;13.40;99.90
6357;DHT22;3211;53.452;-2.264;2023-04-29T08:25:00;13.60;99.90
6357;DHT22;3211;53.452;-2.264;2023-04-29T08:27:46;13.80;99.90
6357;DHT22;3211;53.452;-2.264;2023-04-29T08:30:28;14.00;99.90
6357;DHT22;3211;53.452;-2.264;2023-04-29T08:33:10;14.20;99.90
6357;DHT22;3211;53.452;-2.264;2023-04-29T08:35:57;14.10;99.90
6357;DHT22;3211;53.452;-2.264;2023-04-29T08:38:40;14.20;99.90
6357;DHT22;3211;53.452;-2.264;2023-04-29T08:41:22;14.20;99.90
6357;DHT22;3211;53.452;-2.264;2023-04-29T08:44:06;14.20;99.90
6357;DHT22;3211;53.452;-2.264;2023-04-29T08:46:48;14.30;99.90
6357;DHT22;3211;53.452;-2.264;2023-04-29T08:49:31;14.20;99.90
6357;DHT22;3211;53.452;-2.264;2023-04-29T08:52:13;14.40;99.90
6357;DHT22;3211;53.452;-2.264;2023-04-29T08:54:55;14.30;99.90
6357;DHT22;3211;53.452;-2.264;2023-04-29T08:57:38;14.40;99.90
6357;DHT22;3211;53.452;-2.264;2023-04-29T09:00:23;14.40;99.90
6357;DHT22;3211;53.452;-2.264;2023-04-29T09:03:12;14.50;99.90
6357;DHT22;3211;53.452;-2.264;2023-04-29T09:05:58;14.60;99.90
6357;DHT22;3211;53.452;-2.264;2023-04-29T09:08:41;14.70;99.90
6357;DHT22;3211;53.452;-2.264;2023-04-29T09:11:23;14.70;99.90
6357;DHT22;3211;53.452;-2.264;2023-04-29T09:14:05;14.90;99.90
6357;DHT22;3211;53.452;-2.264;2023-04-29T09:16:50;15.30;99.90
6357;DHT22;3211;53.452;-2.264;2023-04-29T09:19:33;15.30;99.90
6357;DHT22;3211;53.452;-2.264;2023-04-29T09:22:16;15.10;99.90
6357;DHT22;3211;53.452;-2.264;2023-04-29T09:25:11;15.30;99.90
6357;DHT22;3211;53.452;-2.264;2023-04-29T09:27:53;15.40;99.90
6357;DHT22;3211;53.452;-2.264;2023-04-29T09:30:44;15.50;99.90
6357;DHT22;3211;53.452;-2.264;2023-04-29T09:33:29;15.70;99.90
6357;DHT22;3211;53.452;-2.264;2023-04-29T09:36:11;15.60;99.90
6357;DHT22;3211;53.452;-2.264;2023-04-29T09:38:53;15.80;99.90
6357;DHT22;3211;53.452;-2.264;2023-04-29T09:44:34;15.70;99.90
6357;DHT22;3211;53.452;-2.264;2023-04-29T09:47:16;15.50;99.90
6357;DHT22;3211;53.452;-2.264;2023-04-29T09:50:11;15.20;99.90
6357;DHT22;3211;53.452;-2.264;2023-04-29T09:52:55;15.20;99.90
6357;DHT22;3211;53.452;-2.264;2023-04-29T09:55:57;15.20;99.90
6357;DHT22;3211;53.452;-2.264;2023-04-29T09:58:40;15.20;99.90
6357;DHT22;3211;53.452;-2.264;2023-04-29T10:01:22;15.30;99.90
6357;DHT22;3211;53.452;-2.264;2023-04-29T10:04:07;15.40;99.90
6357;DHT22;3211;53.452;-2.264;2023-04-29T10:06:53;15.30;99.90
6357;DHT22;3211;53.452;-2.264;2023-04-29T10:09:36;15.40;99.90
6357;DHT22;3211;53.452;-2.264;2023-04-29T10:12:20;15.80;99.90
6357;DHT22;3211;53.452;-2.264;2023-04-29T10:15:06;16.00;99.90
6357;DHT22;3211;53.452;-2.264;2023-04-29T10:17:54;16.10;99.90
6357;DHT22;3211;53.452;-2.264;2023-04-29T10:20:40;16.00;99.90
6357;DHT22;3211;53.452;-2.264;2023-04-29T10:23:29;16.20;99.90
6357;DHT22;3211;53.452;-2.264;2023-04-29T10:26:11;16.30;99.90
6357;DHT22;3211;53.452;-2.264;2023-04-29T10:28:55;16.60;99.90
6357;DHT22;3211;53.452;-2.264;2023-04-29T10:31:38;16.70;99.90
6357;DHT22;3211;53.452;-2.264;2023-04-29T10:34:22;17.00;99.90
6357;DHT22;3211;53.452;-2.264;2023-04-29T10:37:06;17.20;99.90
6357;DHT22;3211;53.452;-2.264;2023-04-29T10:39:58;17.70;99.90
6357;DHT22;3211;53.452;-2.264;2023-04-29T10:42:45;18.00;99.90
6357;DHT22;3211;53.452;-2.264;2023-04-29T10:45:27;18.10;99.90
6357;DHT22;3211;53.452;-2.264;2023-04-29T10:48:12;17.90;90.80
6357;DHT22;3211;53.452;-2.264;2023-04-29T10:51:01;17.40;96.60
6357;DHT22;3211;53.452;-2.264;2023-04-29T10:53:59;17.40;99.90
6357;DHT22;3211;53.452;-2.264;2023-04-29T10:56:46;17.30;97.30
6357;DHT22;3211;53.452;-2.264;2023-04-29T10:59:44;17.30;99.90
6357;DHT22;3211;53.452;-2.264;2023-04-29T11:02:27;17.30;99.40
6357;DHT22;3211;53.452;-2.264;2023-04-29T11:05:10;17.20;94.00
6357;DHT22;3211;53.452;-2.264;2023-04-29T11:08:08;17.30;89.60
6357;DHT22;3211;53.452;-2.264;2023-04-29T11:10:52;17.50;82.80
6357;DHT22;3211;53.452;-2.264;2023-04-29T11:13:37;17.80;81.80
6357;DHT22;3211;53.452;-2.264;2023-04-29T11:16:25;17.90;66.80
6357;DHT22;3211;53.452;-2.264;2023-04-29T11:19:09;17.90;74.20
6357;DHT22;3211;53.452;-2.264;2023-04-29T11:22:07;17.80;81.10
6357;DHT22;3211;53.452;-2.264;2023-04-29T11:24:51;17.80;84.00
6357;DHT22;3211;53.452;-2.264;2023-04-29T11:27:35;17.90;81.70
6357;DHT22;3211;53.452;-2.264;2023-04-29T11:30:19;17.70;52.50
6357;DHT22;3211;53.452;-2.264;2023-04-29T11:33:01;17.90;55.90
6357;DHT22;3211;53.452;-2.264;2023-04-29T11:35:43;17.90;51.80
6357;DHT22;3211;53.452;-2.264;2023-04-29T11:38:25;18.00;48.00
6357;DHT22;3211;53.452;-2.264;2023-04-29T11:41:09;18.00;52.20
6357;DHT22;3211;53.452;-2.264;2023-04-29T11:43:54;18.00;51.50
6357;DHT22;3211;53.452;-2.264;2023-04-29T11:46:39;18.00;59.40
6357;DHT22;3211;53.452;-2.264;2023-04-29T11:49:21;18.00;61.10
6357;DHT22;3211;53.452;-2.264;2023-04-29T11:52:08;17.90;53.90
6357;DHT22;3211;53.452;-2.264;2023-04-29T11:54:50;18.10;58.20
6357;DHT22;3211;53.452;-2.264;2023-04-29T11:57:32;18.10;55.30
6357;DHT22;3211;53.452;-2.264;2023-04-29T12:00:14;17.90;60.30
6357;DHT22;3211;53.452;-2.264;2023-04-29T12:02:58;17.80;65.00
6357;DHT22;3211;53.452;-2.264;2023-04-29T12:05:45;18.10;72.20
6357;DHT22;3211;53.452;-2.264;2023-04-29T12:08:29;18.30;73.30
6357;DHT22;3211;53.452;-2.264;2023-04-29T12:11:13;18.70;52.50
6357;DHT22;3211;53.452;-2.264;2023-04-29T12:13:55;18.70;46.20
6357;DHT22;3211;53.452;-2.264;2023-04-29T12:16:38;18.90;43.60
6357;DHT22;3211;53.452;-2.264;2023-04-29T12:19:21;18.90;22.80
6357;DHT22;3211;53.452;-2.264;2023-04-29T12:22:03;19.30;14.60
6357;DHT22;3211;53.452;-2.264;2023-04-29T12:24:46;19.50;13.50
6357;DHT22;3211;53.452;-2.264;2023-04-29T12:27:30;19.30;17.90
6357;DHT22;3211;53.452;-2.264;2023-04-29T12:30:13;19.70;22.90
6357;DHT22;3211;53.452;-2.264;2023-04-29T12:32:55;19.20;14.60
6357;DHT22;3211;53.452;-2.264;2023-04-29T12:35:38;18.90;22.30
6357;DHT22;3211;53.452;-2.264;2023-04-29T12:38:21;19.10;22.10
6357;DHT22;3211;53.452;-2.264;2023-04-29T12:41:04;19.40;26.60
6357;DHT22;3211;53.452;-2.264;2023-04-29T12:43:48;19.40;7.50
6357;DHT22;3211;53.452;-2.264;2023-04-29T12:46:34;19.80;9.30
6357;DHT22;3211;53.452;-2.264;2023-04-29T12:49:16;20.30;13.90
6357;DHT22;3211;53.452;-2.264;2023-04-29T12:52:01;20.30;1.00
6357;DHT22;3211;53.452;-2.264;2023-04-29T12:54:43;19.90;1.00
6357;DHT22;3211;53.452;-2.264;2023-04-29T12:57:27;20.00;1.00
6357;DHT22;3211;53.452;-2.264;2023-04-29T13:00:10;20.00;1.00
6357;DHT22;3211;53.452;-2.264;2023-04-29T13:02:52;20.10;1.00
6357;DHT22;3211;53.452;-2.264;2023-04-29T13:05:34;20.00;1.00
6357;DHT22;3211;53.452;-2.264;2023-04-29T13:08:18;20.00;1.00
6357;DHT22;3211;53.452;-2.264;2023-04-29T13:11:00;19.70;1.00
6357;DHT22;3211;53.452;-2.264;2023-04-29T13:13:42;19.70;1.00
6357;DHT22;3211;53.452;-2.264;2023-04-29T13:16:24;19.70;1.00
6357;DHT22;3211;53.452;-2.264;2023-04-29T13:19:06;19.40;1.00
6357;DHT22;3211;53.452;-2.264;2023-04-29T13:21:48;19.40;1.00
6357;DHT22;3211;53.452;-2.264;2023-04-29T13:24:32;19.30;1.00
6357;DHT22;3211;53.452;-2.264;2023-04-29T13:27:15;19.40;1.00
6357;DHT22;3211;53.452;-2.264;2023-04-29T13:29:57;19.50;1.00
6357;DHT22;3211;53.452;-2.264;2023-04-29T13:32:39;19.40;1.00
6357;DHT22;3211;53.452;-2.264;2023-04-29T13:35:21;19.00;2.60
6357;DHT22;3211;53.452;-2.264;2023-04-29T13:38:03;18.80;10.60
6357;DHT22;3211;53.452;-2.264;2023-04-29T13:40:47;19.00;2.80
6357;DHT22;3211;53.452;-2.264;2023-04-29T13:43:29;19.20;1.00
6357;DHT22;3211;53.452;-2.264;2023-04-29T13:46:10;19.20;1.00
6357;DHT22;3211;53.452;-2.264;2023-04-29T13:48:52;19.50;1.00
6357;DHT22;3211;53.452;-2.264;2023-04-29T13:51:34;20.00;1.00
6357;DHT22;3211;53.452;-2.264;2023-04-29T13:54:16;20.00;1.00
6357;DHT22;3211;53.452;-2.264;2023-04-29T13:57:02;20.30;1.00
6357;DHT22;3211;53.452;-2.264;2023-04-29T13:59:44;20.30;1.00
6357;DHT22;3211;53.452;-2.264;2023-04-29T14:02:26;20.40;1.00
6357;DHT22;3211;53.452;-2.264;2023-04-29T14:05:08;20.00;1.00
6357;DHT22;3211;53.452;-2.264;2023-04-29T14:07:50;19.70;1.00
6357;DHT22;3211;53.452;-2.264;2023-04-29T14:10:32;20.10;1.00
6357;DHT22;3211;53.452;-2.264;2023-04-29T14:13:15;19.90;1.00
6357;DHT22;3211;53.452;-2.264;2023-04-29T14:15:58;20.00;1.00
6357;DHT22;3211;53.452;-2.264;2023-04-29T14:18:42;19.70;1.00
6357;DHT22;3211;53.452;-2.264;2023-04-29T14:21:24;19.90;1.00
6357;DHT22;3211;53.452;-2.264;2023-04-29T14:24:07;19.80;1.00
6357;DHT22;3211;53.452;-2.264;2023-04-29T14:26:49;20.60;1.00
6357;DHT22;3211;53.452;-2.264;2023-04-29T14:29:34;20.40;1.00
6357;DHT22;3211;53.452;-2.264;2023-04-29T14:32:15;20.20;1.00
6357;DHT22;3211;53.452;-2.264;2023-04-29T14:34:57;20.10;1.00
6357;DHT22;3211;53.452;-2.264;2023-04-29T14:37:39;20.60;1.00
6357;DHT22;3211;53.452;-2.264;2023-04-29T14:40:22;21.00;1.00
6357;DHT22;3211;53.452;-2.264;2023-04-29T14:43:04;20.80;1.00
6357;DHT22;3211;53.452;-2.264;2023-04-29T14:45:48;20.50;1.00
6357;DHT22;3211;53.452;-2.264;2023-04-29T14:48:30;20.40;1.00
6357;DHT22;3211;53.452;-2.264;2023-04-29T14:51:12;20.80;1.00
6357;DHT22;3211;53.452;-2.264;2023-04-29T14:53:54;24.70;1.00
6357;DHT22;3211;53.452;-2.264;2023-04-29T14:56:36;25.70;1.00
6357;DHT22;3211;53.452;-2.264;2023-04-29T14:59:18;27.20;99.90
6357;DHT22;3211;53.452;-2.264;2023-04-29T15:02:02;26.60;99.90
6357;DHT22;3211;53.452;-2.264;2023-04-29T15:04:44;25.50;99.90
6357;DHT22;3211;53.452;-2.264;2023-04-29T15:07:26;26.80;99.90
6357;DHT22;3211;53.452;-2.264;2023-04-29T15:10:09;28.40;99.90
6357;DHT22;3211;53.452;-2.264;2023-04-29T15:12:50;24.70;99.90
6357;DHT22;3211;53.452;-2.264;2023-04-29T15:15:33;24.50;1.00
6357;DHT22;3211;53.452;-2.264;2023-04-29T15:18:17;24.70;99.90
6357;DHT22;3211;53.452;-2.264;2023-04-29T15:20:59;25.00;99.90
6357;DHT22;3211;53.452;-2.264;2023-04-29T15:23:41;27.30;99.90
6357;DHT22;3211;53.452;-2.264;2023-04-29T15:26:23;29.80;99.90
6357;DHT22;3211;53.452;-2.264;2023-04-29T15:29:05;30.70;99.90
6357;DHT22;3211;53.452;-2.264;2023-04-29T15:31:47;30.10;99.90
6357;DHT22;3211;53.452;-2.264;2023-04-29T15:34:30;31.10;99.90
6357;DHT22;3211;53.452;-2.264;2023-04-29T15:37:12;30.40;99.90
6357;DHT22;3211;53.452;-2.264;2023-04-29T15:39:55;25.80;1.00
6357;DHT22;3211;53.452;-2.264;2023-04-29T15:42:37;23.10;1.00
6357;DHT22;3211;53.452;-2.264;2023-04-29T15:45:19;21.50;1.00
6357;DHT22;3211;53.452;-2.264;2023-04-29T15:48:01;20.60;5.60
6357;DHT22;3211;53.452;-2.264;2023-04-29T15:50:44;19.90;29.50
6357;DHT22;3211;53.452;-2.264;2023-04-29T15:53:26;19.00;50.00
6357;DHT22;3211;53.452;-2.264;2023-04-29T15:56:08;18.80;81.70
6357;DHT22;3211;53.452;-2.264;2023-04-29T15:58:50;18.80;92.00
6357;DHT22;3211;53.452;-2.264;2023-04-29T16:01:33;18.90;88.60
6357;DHT22;3211;53.452;-2.264;2023-04-29T16:04:19;18.70;73.20
6357;DHT22;3211;53.452;-2.264;2023-04-29T16:07:02;18.60;98.30
6357;DHT22;3211;53.452;-2.264;2023-04-29T16:09:45;18.50;99.90
6357;DHT22;3211;53.452;-2.264;2023-04-29T16:12:26;18.50;99.90
6357;DHT22;3211;53.452;-2.264;2023-04-29T16:15:09;18.30;99.90
6357;DHT22;3211;53.452;-2.264;2023-04-29T16:17:51;18.00;99.90
6357;DHT22;3211;53.452;-2.264;2023-04-29T16:20:33;17.60;99.90
6357;DHT22;3211;53.452;-2.264;2023-04-29T16:23:17;17.50;99.90
6357;DHT22;3211;53.452;-2.264;2023-04-29T16:25:59;17.50;99.90
6357;DHT22;3211;53.452;-2.264;2023-04-29T16:28:41;17.30;99.90
6357;DHT22;3211;53.452;-2.264;2023-04-29T16:31:23;16.90;99.90
6357;DHT22;3211;53.452;-2.264;2023-04-29T16:34:05;16.70;99.90
6357;DHT22;3211;53.452;-2.264;2023-04-29T16:36:47;16.70;99.90
6357;DHT22;3211;53.452;-2.264;2023-04-29T16:39:30;16.80;99.90
6357;DHT22;3211;53.452;-2.264;2023-04-29T16:42:13;16.70;99.90
6357;DHT22;3211;53.452;-2.264;2023-04-29T16:44:54;16.60;99.90
6357;DHT22;3211;53.452;-2.264;2023-04-29T16:47:40;16.60;99.90
6357;DHT22;3211;53.452;-2.264;2023-04-29T16:50:22;16.60;99.90
6357;DHT22;3211;53.452;-2.264;2023-04-29T16:53:04;16.60;99.90
6357;DHT22;3211;53.452;-2.264;2023-04-29T16:55:48;16.50;99.90
6357;DHT22;3211;53.452;-2.264;2023-04-29T16:58:30;16.30;99.90
6357;DHT22;3211;53.452;-2.264;2023-04-29T17:01:12;16.30;99.90
6357;DHT22;3211;53.452;-2.264;2023-04-29T17:03:54;16.20;99.90
6357;DHT22;3211;53.452;-2.264;2023-04-29T17:06:36;16.20;99.90
6357;DHT22;3211;53.452;-2.264;2023-04-29T17:09:20;16.30;99.90
6357;DHT22;3211;53.452;-2.264;2023-04-29T17:12:06;16.20;99.90
6357;DHT22;3211;53.452;-2.264;2023-04-29T17:14:48;16.20;99.90
6357;DHT22;3211;53.452;-2.264;2023-04-29T17:17:31;16.00;99.90
6357;DHT22;3211;53.452;-2.264;2023-04-29T17:20:13;16.00;99.90
6357;DHT22;3211;53.452;-2.264;2023-04-29T17:22:55;16.00;99.90
6357;DHT22;3211;53.452;-2.264;2023-04-29T17:25:37;16.00;99.90
6357;DHT22;3211;53.452;-2.264;2023-04-29T17:28:20;15.90;99.90
6357;DHT22;3211;53.452;-2.264;2023-04-29T17:31:03;15.80;99.90
6357;DHT22;3211;53.452;-2.264;2023-04-29T17:33:45;15.80;99.90
6357;DHT22;3211;53.452;-2.264;2023-04-29T17:36:34;15.80;99.90